createdAt,value
2023-05-21T00:00:18.084Z,100806.88
2023-05-21T00:02:47.087Z,100806.22
2023-05-21T00:05:19.311Z,100824.84
2023-05-21T00:07:48.523Z,100813.78
2023-05-21T00:10:17.977Z,100773.78
2023-05-21T00:12:46.954Z,100837.34
2023-05-21T00:15:15.777Z,100821.16
2023-05-21T00:17:45.180Z,100825.97
2023-05-21T00:20:14.149Z,100836.78
2023-05-21T00:22:43.246Z,100811.25
2023-05-21T00:25:13.033Z,100815.53
2023-05-21T00:27:42.003Z,100812.28
2023-05-21T00:30:11.218Z,100815.03
2023-05-21T00:32:40.196Z,100812.97
2023-05-21T00:35:10.026Z,100768.03
2023-05-21T00:37:39.236Z,100831.13
2023-05-21T00:40:09.843Z,100805.91
2023-05-21T00:42:40.765Z,100829.06
2023-05-21T00:45:10.268Z,100814.88
2023-05-21T00:47:40.075Z,100830.81
2023-05-21T00:50:09.841Z,100826.22
2023-05-21T00:52:42.648Z,100835.44
2023-05-21T00:55:11.807Z,100817.84
2023-05-21T00:57:41.527Z,100774.97
2023-05-21T01:00:11.460Z,100824.75
2023-05-21T01:02:40.780Z,100844.94
2023-05-21T01:05:10.976Z,100848.03
2023-05-21T01:07:42.130Z,100858.06
2023-05-21T01:10:13.739Z,100832.22
2023-05-21T01:12:45.730Z,100843.72
2023-05-21T01:15:15.217Z,100823.19
2023-05-21T01:17:46.501Z,100846.84
2023-05-21T01:20:21.003Z,100847.06
2023-05-21T01:22:52.783Z,100860.75
2023-05-21T01:25:22.063Z,100850.38
2023-05-21T01:27:52.471Z,100834.00
2023-05-21T01:30:23.358Z,100797.88
2023-05-21T01:33:30.617Z,100851.44
2023-05-21T01:36:27.160Z,100835.34
2023-05-21T01:39:03.080Z,100849.00
2023-05-21T01:41:37.950Z,100848.34
2023-05-21T01:44:08.244Z,100824.53
2023-05-21T01:46:38.785Z,100837.97
2023-05-21T01:49:09.027Z,100847.06
2023-05-21T01:51:38.803Z,100833.38
2023-05-21T01:54:07.642Z,100835.88
2023-05-21T01:56:37.684Z,100849.78
2023-05-21T01:59:06.733Z,100825.69
2023-05-21T02:01:35.554Z,100848.72
2023-05-21T02:04:04.818Z,100835.84
2023-05-21T02:06:34.105Z,100852.22
2023-05-21T02:09:04.345Z,100843.22
2023-05-21T02:11:33.149Z,100853.84
2023-05-21T02:14:02.312Z,100843.19
2023-05-21T02:16:31.868Z,100840.63
2023-05-21T02:19:01.357Z,100842.47
2023-05-21T02:21:30.347Z,100857.47
2023-05-21T02:23:59.318Z,100851.50
2023-05-21T02:26:28.610Z,100848.69
2023-05-21T02:28:57.551Z,100865.53
2023-05-21T02:31:26.742Z,100813.94
2023-05-21T02:33:55.600Z,100850.97
2023-05-21T02:36:26.129Z,100811.97
2023-05-21T02:38:55.336Z,100867.22
2023-05-21T02:41:24.289Z,100863.97
2023-05-21T02:43:53.191Z,100861.22
2023-05-21T02:46:22.674Z,100857.69
2023-05-21T02:48:51.596Z,100869.03
2023-05-21T02:51:20.323Z,100873.56
2023-05-21T02:53:49.880Z,100850.97
2023-05-21T02:56:19.447Z,100870.41
2023-05-21T02:58:49.072Z,100859.88
2023-05-21T03:01:17.890Z,100860.50
2023-05-21T03:03:47.305Z,100857.88
2023-05-21T03:06:17.293Z,100854.47
2023-05-21T03:08:46.252Z,100819.53
2023-05-21T03:11:15.245Z,100865.94
2023-05-21T03:13:44.146Z,100863.53
2023-05-21T03:16:13.112Z,100857.19
2023-05-21T03:18:42.076Z,100847.81
2023-05-21T03:21:14.064Z,100852.38
2023-05-21T03:23:45.368Z,100861.31
2023-05-21T03:26:14.864Z,100863.69
2023-05-21T03:28:44.500Z,100861.41
2023-05-21T03:31:13.504Z,100857.97
2023-05-21T03:34:14.485Z,100863.91
2023-05-21T03:36:43.461Z,100860.28
2023-05-21T03:39:12.668Z,100866.09
2023-05-21T03:41:41.826Z,100869.72
2023-05-21T03:44:17.987Z,100872.38
2023-05-21T03:46:55.367Z,100849.41
2023-05-21T03:49:33.143Z,100871.91
2023-05-21T03:52:02.410Z,100846.28
2023-05-21T03:54:31.240Z,100811.47
2023-05-21T03:57:04.652Z,100862.88
2023-05-21T03:59:34.866Z,100852.00
2023-05-21T04:02:06.162Z,100863.03
2023-05-21T04:04:35.221Z,100842.94
2023-05-21T04:07:05.325Z,100861.50
2023-05-21T04:09:36.512Z,100854.47
2023-05-21T04:12:05.808Z,100845.94
2023-05-21T04:14:35.210Z,100853.63
2023-05-21T04:17:06.151Z,100833.88
2023-05-21T04:19:35.397Z,100841.72
2023-05-21T04:22:05.754Z,100848.19
2023-05-21T04:24:37.687Z,100839.63
2023-05-21T04:27:17.691Z,100844.81
2023-05-21T04:29:47.614Z,100828.13
2023-05-21T04:32:18.858Z,100837.81
2023-05-21T04:34:47.748Z,100832.78
2023-05-21T04:37:18.764Z,100842.75
2023-05-21T04:39:47.698Z,100850.53
2023-05-21T04:42:16.608Z,100846.00
2023-05-21T04:44:45.476Z,100830.66
2023-05-21T04:47:15.405Z,100817.34
2023-05-21T04:49:45.111Z,100823.53
2023-05-21T04:52:14.795Z,100824.03
2023-05-21T04:54:44.179Z,100818.50
2023-05-21T04:57:13.331Z,100818.81
2023-05-21T04:59:44.446Z,100833.94
2023-05-21T05:02:13.224Z,100822.38
2023-05-21T05:04:42.158Z,100823.44
2023-05-21T05:07:11.768Z,100828.72
2023-05-21T05:09:43.785Z,100836.53
2023-05-21T05:12:12.934Z,100818.72
2023-05-21T05:14:41.765Z,100822.41
2023-05-21T05:17:11.396Z,100832.94
2023-05-21T05:19:40.728Z,100816.66
2023-05-21T05:22:10.401Z,100831.63
2023-05-21T05:24:40.827Z,100819.91
2023-05-21T05:27:09.530Z,100814.63
2023-05-21T05:29:38.488Z,100806.00
2023-05-21T05:32:08.133Z,100806.81
2023-05-21T05:34:36.949Z,100809.91
2023-05-21T05:37:07.448Z,100800.69
2023-05-21T05:39:36.177Z,100813.09
2023-05-21T05:42:05.554Z,100817.19
2023-05-21T05:44:34.481Z,100808.19
2023-05-21T05:47:03.730Z,100803.63
2023-05-21T05:49:32.516Z,100797.81
2023-05-21T05:52:02.328Z,100796.06
2023-05-21T05:54:31.410Z,100791.75
2023-05-21T05:57:00.490Z,100784.47
2023-05-21T05:59:29.598Z,100780.69
2023-05-21T06:02:02.293Z,100802.69
2023-05-21T06:04:31.321Z,100778.03
2023-05-21T06:07:03.366Z,100780.75
2023-05-21T06:09:34.485Z,100780.72
2023-05-21T06:12:03.273Z,100779.53
2023-05-21T06:14:32.589Z,100756.13
2023-05-21T06:17:01.562Z,100781.75
2023-05-21T06:19:30.372Z,100776.97
2023-05-21T06:21:59.366Z,100722.97
2023-05-21T06:24:28.646Z,100755.50
2023-05-21T06:26:57.964Z,100760.06
2023-05-21T06:29:27.096Z,100755.41
2023-05-21T06:31:56.392Z,100754.94
2023-05-21T06:34:25.438Z,100768.72
2023-05-21T06:36:58.978Z,100783.63
2023-05-21T06:39:28.565Z,100766.78
2023-05-21T06:41:57.956Z,100773.06
2023-05-21T06:44:45.575Z,100773.97
2023-05-21T06:47:38.380Z,100782.00
2023-05-21T06:50:07.581Z,100756.53
2023-05-21T06:52:36.703Z,100747.59
2023-05-21T06:55:06.188Z,100766.16
2023-05-21T06:57:55.048Z,100755.28
2023-05-21T07:00:24.554Z,100760.72
2023-05-21T07:02:53.492Z,100756.19
2023-05-21T07:05:22.533Z,100756.16
2023-05-21T07:07:51.714Z,100752.84
2023-05-21T07:10:21.373Z,100755.97
2023-05-21T07:12:50.247Z,100752.56
2023-05-21T07:15:21.923Z,100734.81
2023-05-21T07:17:50.804Z,100742.66
2023-05-21T07:20:20.733Z,100738.13
2023-05-21T07:22:52.286Z,100728.50
2023-05-21T07:25:21.504Z,100738.59
2023-05-21T07:27:50.464Z,100731.50
2023-05-21T07:30:19.243Z,100729.72
2023-05-21T07:32:49.191Z,100698.53
2023-05-21T07:35:18.104Z,100689.06
2023-05-21T07:37:47.857Z,100721.81
2023-05-21T07:40:17.024Z,100739.28
2023-05-21T07:42:46.703Z,100725.56
2023-05-21T07:45:20.006Z,100734.63
2023-05-21T07:47:48.907Z,100723.28
2023-05-21T07:50:18.247Z,100714.53
2023-05-21T07:52:47.666Z,100738.63
2023-05-21T07:55:17.474Z,100716.53
2023-05-21T07:57:47.152Z,100728.84
2023-05-21T08:00:18.398Z,100717.34
2023-05-21T08:02:53.905Z,100744.78
2023-05-21T08:05:24.152Z,100743.72
2023-05-21T08:07:53.347Z,100729.53
2023-05-21T08:10:23.471Z,100719.56
2023-05-21T08:12:53.766Z,100725.53
2023-05-21T08:15:23.345Z,100719.63
2023-05-21T08:17:52.418Z,100719.25
2023-05-21T08:20:21.924Z,100732.44
2023-05-21T08:22:51.967Z,100722.41
2023-05-21T08:25:21.646Z,100676.69
2023-05-21T08:27:52.333Z,100709.13
2023-05-21T08:30:21.942Z,100727.31
2023-05-21T08:32:50.823Z,100719.75
2023-05-21T08:35:22.030Z,100668.66
2023-05-21T08:37:59.597Z,100713.28
2023-05-21T08:40:44.306Z,100699.50
2023-05-21T08:43:17.303Z,100690.44
2023-05-21T08:45:55.923Z,100708.94
2023-05-21T08:48:29.126Z,100706.13
2023-05-21T08:51:00.467Z,100686.78
2023-05-21T08:53:36.936Z,100657.44
2023-05-21T08:56:09.993Z,100710.38
2023-05-21T08:58:52.268Z,100692.97
2023-05-21T09:01:26.553Z,100698.53
2023-05-21T09:04:20.139Z,100712.72
2023-05-21T09:06:55.478Z,100709.69
2023-05-21T09:09:48.345Z,100692.09
2023-05-21T09:12:17.904Z,100714.69
2023-05-21T09:14:49.268Z,100708.13
2023-05-21T09:17:21.309Z,100710.56
2023-05-21T09:20:14.189Z,100711.03
2023-05-21T09:22:52.739Z,100692.16
2023-05-21T09:25:28.916Z,100701.69
2023-05-21T09:28:02.142Z,100698.25
2023-05-21T09:30:33.319Z,100694.59
2023-05-21T09:33:07.824Z,100691.72
2023-05-21T09:35:38.252Z,100652.09
2023-05-21T09:38:10.519Z,100708.31
2023-05-21T09:40:46.522Z,100686.50
2023-05-21T09:43:17.227Z,100683.31
2023-05-21T09:45:54.158Z,100694.06
2023-05-21T09:48:35.537Z,100686.44
2023-05-21T09:51:10.839Z,100685.53
2023-05-21T09:53:59.378Z,100704.72
2023-05-21T09:56:32.973Z,100693.44
2023-05-21T09:59:07.726Z,100690.50
2023-05-21T10:01:38.330Z,100690.69
2023-05-21T10:04:11.587Z,100672.03
2023-05-21T10:06:45.424Z,100687.16
2023-05-21T10:09:20.264Z,100679.06
2023-05-21T10:11:53.894Z,100643.56
2023-05-21T10:14:26.364Z,100684.19
2023-05-21T10:16:58.986Z,100692.25
2023-05-21T10:19:32.712Z,100687.13
2023-05-21T10:22:02.311Z,100679.97
2023-05-21T10:24:32.816Z,100701.28
2023-05-21T10:27:04.875Z,100671.09
2023-05-21T10:29:36.458Z,100699.22
2023-05-21T10:32:06.955Z,100704.56
2023-05-21T10:34:37.712Z,100690.97
2023-05-21T10:37:10.563Z,100694.13
2023-05-21T10:39:40.619Z,100697.75
2023-05-21T10:42:25.144Z,100697.59
2023-05-21T10:45:18.766Z,100704.47
2023-05-21T10:48:24.922Z,100696.88
2023-05-21T10:51:17.606Z,100698.34
2023-05-21T10:54:17.563Z,100691.00
2023-05-21T10:56:58.467Z,100708.69
2023-05-21T11:00:04.955Z,100710.41
2023-05-21T11:02:37.900Z,100709.91
2023-05-21T11:05:07.878Z,100708.44
2023-05-21T11:07:58.522Z,100699.63
2023-05-21T11:10:39.068Z,100710.53
2023-05-21T11:13:15.477Z,100712.22
2023-05-21T11:15:59.920Z,100709.91
2023-05-21T11:18:39.158Z,100706.47
2023-05-21T11:21:11.253Z,100700.03
2023-05-21T11:23:52.355Z,100714.25
2023-05-21T11:26:25.692Z,100712.38
2023-05-21T11:29:07.154Z,100712.84
2023-05-21T11:31:40.887Z,100694.00
2023-05-21T11:34:10.373Z,100710.38
2023-05-21T11:36:45.071Z,100708.66
2023-05-21T11:39:25.760Z,100708.97
2023-05-21T11:42:04.447Z,100703.88
2023-05-21T11:44:43.409Z,100708.63
2023-05-21T11:47:15.534Z,100702.56
2023-05-21T11:49:45.067Z,100697.44
2023-05-21T11:52:15.695Z,100694.25
2023-05-21T11:54:51.494Z,100698.50
2023-05-21T11:57:21.176Z,100683.66
2023-05-21T11:59:54.739Z,100702.25
2023-05-21T12:02:23.932Z,100704.28
2023-05-21T12:04:52.887Z,100712.09
2023-05-21T12:07:22.791Z,100709.06
2023-05-21T12:09:53.332Z,100661.16
2023-05-21T12:12:25.128Z,100688.47
2023-05-21T12:14:55.705Z,100708.97
2023-05-21T12:17:25.946Z,100693.72
2023-05-21T12:19:57.910Z,100693.91
2023-05-21T12:22:29.020Z,100693.38
2023-05-21T12:24:59.246Z,100704.03
2023-05-21T12:27:29.015Z,100687.94
2023-05-21T12:29:58.283Z,100699.66
2023-05-21T12:32:30.006Z,100681.91
2023-05-21T12:34:59.165Z,100689.50
2023-05-21T12:37:36.448Z,100697.31
2023-05-21T12:40:06.274Z,100696.47
2023-05-21T12:42:38.395Z,100707.19
2023-05-21T12:45:09.278Z,100697.66
2023-05-21T12:47:38.556Z,100726.16
2023-05-21T12:50:14.766Z,100723.75
2023-05-21T12:52:45.184Z,100714.28
2023-05-21T12:55:20.827Z,100723.94
2023-05-21T12:57:50.066Z,100724.47
2023-05-21T13:00:25.025Z,100715.66
2023-05-21T13:02:54.223Z,100731.41
2023-05-21T13:05:23.252Z,100717.03
2023-05-21T13:07:52.692Z,100720.22
2023-05-21T13:10:21.485Z,100716.34
2023-05-21T13:12:50.559Z,100724.97
2023-05-21T13:15:20.407Z,100705.66
2023-05-21T13:17:50.554Z,100713.97
2023-05-21T13:20:24.583Z,100720.72
2023-05-21T13:22:53.773Z,100730.53
2023-05-21T13:25:25.807Z,100728.81
2023-05-21T13:27:55.540Z,100727.81
2023-05-21T13:30:24.559Z,100677.94
2023-05-21T13:32:53.604Z,100714.91
2023-05-21T13:35:23.007Z,100712.19
2023-05-21T13:37:52.324Z,100720.81
2023-05-21T13:40:21.628Z,100720.47
2023-05-21T13:42:51.073Z,100712.13
2023-05-21T13:45:21.850Z,100703.63
2023-05-21T13:47:51.223Z,100724.09
2023-05-21T13:50:20.213Z,100665.88
2023-05-21T13:52:49.328Z,100716.38
2023-05-21T13:55:19.693Z,100716.28
2023-05-21T13:57:48.581Z,100724.88
2023-05-21T14:00:17.563Z,100725.81
2023-05-21T14:02:46.387Z,100676.53
2023-05-21T14:05:15.425Z,100725.94
2023-05-21T14:07:44.521Z,100722.25
2023-05-21T14:10:13.409Z,100723.78
2023-05-21T14:12:46.807Z,100723.50
2023-05-21T14:15:18.565Z,100721.00
2023-05-21T14:17:47.501Z,100721.06
2023-05-21T14:20:16.284Z,100738.97
2023-05-21T14:22:45.498Z,100736.09
2023-05-21T14:25:14.438Z,100732.19
2023-05-21T14:27:43.628Z,100730.28
2023-05-21T14:30:12.868Z,100738.09
2023-05-21T14:32:42.023Z,100749.03
2023-05-21T14:35:11.026Z,100735.13
2023-05-21T14:37:40.191Z,100727.22
2023-05-21T14:40:09.701Z,100736.47
2023-05-21T14:42:38.747Z,100752.25
2023-05-21T14:45:18.693Z,100748.03
2023-05-21T14:47:48.952Z,100748.91
2023-05-21T14:50:19.053Z,100745.09
2023-05-21T14:52:48.364Z,100745.50
2023-05-21T14:55:23.078Z,100754.31
2023-05-21T14:57:52.245Z,100767.69
2023-05-21T15:00:21.726Z,100769.53
2023-05-21T15:02:55.788Z,100744.13
2023-05-21T15:05:32.796Z,100761.59
2023-05-21T15:08:02.339Z,100756.03
2023-05-21T15:10:31.663Z,100767.09
2023-05-21T15:13:00.520Z,100680.41
2023-05-21T15:15:29.359Z,100760.44
2023-05-21T15:17:58.790Z,100750.66
2023-05-21T15:20:27.887Z,100744.72
2023-05-21T15:23:15.438Z,100763.84
2023-05-21T15:25:46.488Z,100761.00
2023-05-21T15:28:15.814Z,100749.50
2023-05-21T15:30:44.864Z,100772.34
2023-05-21T15:33:13.863Z,100778.03
2023-05-21T15:35:43.138Z,100769.66
2023-05-21T15:38:12.408Z,100776.03
2023-05-21T15:40:45.086Z,100781.97
2023-05-21T15:43:14.484Z,100776.41
2023-05-21T15:45:43.388Z,100766.78
2023-05-21T15:48:13.444Z,100781.09
2023-05-21T15:50:42.561Z,100793.00
2023-05-21T15:53:12.593Z,100785.91
2023-05-21T15:55:41.647Z,100771.69
2023-05-21T15:58:10.983Z,100784.31
2023-05-21T16:00:42.493Z,100788.00
2023-05-21T16:03:13.396Z,100786.56
2023-05-21T16:05:42.590Z,100789.09
2023-05-21T16:08:13.072Z,100812.75
2023-05-21T16:10:42.029Z,100808.19
2023-05-21T16:13:11.338Z,100812.25
2023-05-21T16:15:41.167Z,100800.78
2023-05-21T16:18:10.505Z,100811.53
2023-05-21T16:20:40.053Z,100800.84
2023-05-21T16:23:12.951Z,100788.47
2023-05-21T16:25:42.377Z,100807.63
2023-05-21T16:28:12.829Z,100791.28
2023-05-21T16:30:41.991Z,100729.59
2023-05-21T16:33:12.196Z,100796.09
2023-05-21T16:35:41.328Z,100820.75
2023-05-21T16:38:10.684Z,100793.50
2023-05-21T16:40:41.302Z,100808.81
2023-05-21T16:43:10.416Z,100816.88
2023-05-21T16:45:45.215Z,100792.16
2023-05-21T16:48:14.714Z,100739.06
2023-05-21T16:50:44.314Z,100783.06
2023-05-21T16:53:13.620Z,100791.00
2023-05-21T16:55:43.934Z,100805.03
2023-05-21T16:58:14.491Z,100787.09
2023-05-21T17:00:43.151Z,100782.84
2023-05-21T17:03:13.506Z,100804.19
2023-05-21T17:05:42.805Z,100780.72
2023-05-21T17:08:11.704Z,100779.44
2023-05-21T17:10:40.378Z,100795.03
2023-05-21T17:13:21.673Z,100798.34
2023-05-21T17:15:54.506Z,100793.38
2023-05-21T17:18:23.633Z,100790.94
2023-05-21T17:20:52.549Z,100792.81
2023-05-21T17:23:21.374Z,100737.53
2023-05-21T17:25:53.350Z,100772.41
2023-05-21T17:28:22.550Z,100796.47
2023-05-21T17:30:52.300Z,100787.59
2023-05-21T17:33:22.214Z,100792.25
2023-05-21T17:35:52.154Z,100786.25
2023-05-21T17:38:21.418Z,100786.63
2023-05-21T17:40:51.377Z,100789.31
2023-05-21T17:43:20.325Z,100765.78
2023-05-21T17:45:49.122Z,100771.66
2023-05-21T17:48:18.529Z,100797.34
2023-05-21T17:50:47.928Z,100732.44
2023-05-21T17:53:17.406Z,100769.47
2023-05-21T17:55:46.785Z,100739.50
2023-05-21T17:58:16.549Z,100778.25
2023-05-21T18:00:45.939Z,100779.47
2023-05-21T18:03:15.298Z,100775.22
2023-05-21T18:05:44.516Z,100779.13
2023-05-21T18:08:13.486Z,100778.28
2023-05-21T18:10:43.502Z,100790.47
2023-05-21T18:13:12.689Z,100792.69
2023-05-21T18:15:41.778Z,100739.19
2023-05-21T18:18:10.769Z,100743.69
2023-05-21T18:20:39.670Z,100785.72
2023-05-21T18:23:08.566Z,100786.94
2023-05-21T18:25:37.303Z,100762.22
2023-05-21T18:28:06.386Z,100787.09
2023-05-21T18:30:37.318Z,100769.28
2023-05-21T18:33:06.451Z,100783.44
2023-05-21T18:35:35.764Z,100734.97
2023-05-21T18:38:04.898Z,100701.69
2023-05-21T18:40:34.061Z,100775.41
2023-05-21T18:43:07.182Z,100727.88
2023-05-21T18:45:36.693Z,100791.63
2023-05-21T18:48:05.977Z,100779.34
2023-05-21T18:50:35.710Z,100739.00
2023-05-21T18:53:05.489Z,100797.25
2023-05-21T18:55:35.425Z,100785.66
2023-05-21T18:58:04.357Z,100798.22
2023-05-21T19:00:34.858Z,100789.22
2023-05-21T19:03:03.996Z,100797.84
2023-05-21T19:05:33.223Z,100769.69
2023-05-21T19:08:02.006Z,100794.44
2023-05-21T19:10:31.505Z,100803.22
2023-05-21T19:13:00.409Z,100736.66
2023-05-21T19:15:29.322Z,100787.47
2023-05-21T19:17:58.093Z,100788.81
2023-05-21T19:20:29.935Z,100782.63
2023-05-21T19:22:58.724Z,100804.66
2023-05-21T19:25:28.243Z,100796.88
2023-05-21T19:27:57.223Z,100806.34
2023-05-21T19:30:26.474Z,100791.38
2023-05-21T19:32:55.599Z,100813.41
2023-05-21T19:35:24.411Z,100777.50
2023-05-21T19:37:55.344Z,100751.31
2023-05-21T19:40:24.404Z,100819.47
2023-05-21T19:42:53.346Z,100807.97
2023-05-21T19:45:22.326Z,100790.38
2023-05-21T19:47:52.116Z,100825.13
2023-05-21T19:50:20.848Z,100805.94
2023-05-21T19:52:49.771Z,100813.22
2023-05-21T19:55:20.978Z,100814.41
2023-05-21T19:57:49.901Z,100755.88
2023-05-21T20:00:19.018Z,100811.59
2023-05-21T20:02:48.101Z,100790.47
2023-05-21T20:05:17.057Z,100791.06
2023-05-21T20:07:45.973Z,100806.25
2023-05-21T20:10:15.208Z,100800.63
2023-05-21T20:12:44.244Z,100794.63
2023-05-21T20:15:15.168Z,100812.06
2023-05-21T20:17:44.948Z,100813.25
2023-05-21T20:20:13.870Z,100753.22
2023-05-21T20:22:42.652Z,100798.97
2023-05-21T20:25:11.578Z,100812.13
2023-05-21T20:27:40.400Z,100808.16
2023-05-21T20:30:09.972Z,100806.91
2023-05-21T20:32:39.016Z,100808.84
2023-05-21T20:35:12.190Z,100810.75
2023-05-21T20:37:41.098Z,100797.41
2023-05-21T20:40:13.397Z,100812.91
2023-05-21T20:42:45.660Z,100793.44
2023-05-21T20:45:16.656Z,100772.31
2023-05-21T20:47:45.454Z,100808.66
2023-05-21T20:50:14.359Z,100786.94
2023-05-21T20:52:46.237Z,100823.09
2023-05-21T20:55:15.883Z,100806.50
2023-05-21T20:57:44.859Z,100832.91
2023-05-21T21:00:14.337Z,100816.22
2023-05-21T21:02:43.338Z,100800.31
2023-05-21T21:05:12.238Z,100825.53
2023-05-21T21:07:41.241Z,100802.63
2023-05-21T21:10:10.602Z,100795.66
2023-05-21T21:12:39.439Z,100807.84
2023-05-21T21:15:09.177Z,100814.16
2023-05-21T21:17:38.140Z,100820.13
2023-05-21T21:20:08.659Z,100814.34
2023-05-21T21:22:37.475Z,100836.28
2023-05-21T21:25:07.057Z,100842.38
2023-05-21T21:27:35.769Z,100820.28
2023-05-21T21:30:05.578Z,100769.88
2023-05-21T21:32:34.376Z,100826.66
2023-05-21T21:35:03.204Z,100820.88
2023-05-21T21:37:32.123Z,100827.94
2023-05-21T21:40:01.061Z,100835.09
2023-05-21T21:42:30.264Z,100806.41
2023-05-21T21:44:59.043Z,100834.63
2023-05-21T21:47:27.934Z,100842.88
2023-05-21T21:49:56.844Z,100831.25
2023-05-21T21:52:28.263Z,100847.00
2023-05-21T21:54:57.223Z,100848.22
2023-05-21T21:57:28.225Z,100829.91
2023-05-21T21:59:57.269Z,100828.25
2023-05-21T22:02:26.683Z,100841.59
2023-05-21T22:04:55.514Z,100834.38
2023-05-21T22:07:24.546Z,100836.47
2023-05-21T22:09:53.366Z,100859.53
2023-05-21T22:12:23.448Z,100826.22
2023-05-21T22:14:52.448Z,100855.16
2023-05-21T22:17:22.220Z,100787.97
2023-05-21T22:19:51.594Z,100851.72
2023-05-21T22:22:20.362Z,100840.69
2023-05-21T22:24:49.217Z,100861.44
2023-05-21T22:27:18.166Z,100837.56
2023-05-21T22:29:47.088Z,100863.81
2023-05-21T22:32:15.853Z,100799.91
2023-05-21T22:34:44.776Z,100851.28
2023-05-21T22:37:13.550Z,100865.53
2023-05-21T22:39:42.427Z,100852.63
2023-05-21T22:42:11.548Z,100856.97
2023-05-21T22:44:40.250Z,100815.28
2023-05-21T22:47:10.205Z,100887.25
2023-05-21T22:49:39.049Z,100883.47
2023-05-21T22:52:09.867Z,100877.78
2023-05-21T22:54:38.748Z,100872.97
2023-05-21T22:57:07.668Z,100863.41
2023-05-21T22:59:36.794Z,100881.25
2023-05-21T23:02:06.148Z,100886.03
2023-05-21T23:04:43.183Z,100869.44
2023-05-21T23:07:13.257Z,100884.38
2023-05-21T23:09:44.585Z,100834.56
2023-05-21T23:12:13.549Z,100880.88
2023-05-21T23:14:42.574Z,100899.81
2023-05-21T23:17:12.016Z,100830.88
2023-05-21T23:19:41.345Z,100900.69
2023-05-21T23:22:10.246Z,100889.94
2023-05-21T23:24:39.788Z,100892.47
2023-05-21T23:27:08.738Z,100904.09
2023-05-21T23:29:37.411Z,100904.03
2023-05-21T23:32:06.853Z,100893.72
2023-05-21T23:34:35.927Z,100901.53
2023-05-21T23:37:07.064Z,100907.72
2023-05-21T23:39:36.126Z,100921.44
2023-05-21T23:42:05.389Z,100927.53
2023-05-21T23:44:34.264Z,100878.59
2023-05-21T23:47:03.281Z,100913.63
2023-05-21T23:49:32.153Z,100919.63
2023-05-21T23:52:00.836Z,100916.75
2023-05-21T23:54:29.801Z,100914.03
2023-05-21T23:56:58.651Z,100936.59
2023-05-21T23:59:27.686Z,100930.38
